Time;durP1;ratioP1;P1;durP2;ratioP2;P2;SDS_P1;SDS_P2;PMS_P1;PMS_P2;Temp;Humidity;BMP_temperature;BMP_pressure;BME280_temperature;BME280_humidity;BME280_pressure;Samples;Min_cycle;Max_cycle;Signal;HPM_P1;HPM_P2
2023/12/13 00:00:14;;;;;;;4.00;1.67;;;26.70;71.20;;;;;;6215648;23;20071;-70
2023/12/13 00:02:41;;;;;;;16.88;2.35;;;26.80;72.20;;;;;;6215515;23;20000;-71
2023/12/13 00:05:08;;;;;;;7.45;1.80;;;27.00;69.40;;;;;;6215458;23;20009;-71
2023/12/13 00:07:36;;;;;;;10.18;2.20;;;27.00;70.20;;;;;;6188446;23;20014;-71
2023/12/13 00:10:04;;;;;;;16.23;2.13;;;27.20;71.30;;;;;;6215602;23;20005;-71
2023/12/13 00:12:31;;;;;;;6.93;1.83;;;27.20;70.70;;;;;;6215331;23;20016;-71
2023/12/13 00:14:58;;;;;;;11.98;2.30;;;27.20;70.60;;;;;;6215369;23;20076;-70
2023/12/13 00:17:25;;;;;;;10.15;1.98;;;27.10;71.20;;;;;;6215634;23;20004;-70
2023/12/13 00:19:53;;;;;;;15.98;2.20;;;27.20;71.20;;;;;;6215504;23;20012;-71
2023/12/13 00:22:20;;;;;;;9.65;2.15;;;27.30;71.90;;;;;;6214902;23;20011;-71
2023/12/13 00:24:47;;;;;;;7.13;1.83;;;27.30;71.90;;;;;;6215217;23;20480;-71
2023/12/13 00:27:15;;;;;;;8.77;2.00;;;27.30;70.30;;;;;;6214885;23;20119;-71
2023/12/13 00:29:42;;;;;;;15.80;2.67;;;27.30;71.90;;;;;;6214801;23;20055;-72
2023/12/13 00:32:10;;;;;;;8.52;2.00;;;27.30;72.10;;;;;;6214825;23;20013;-72
2023/12/13 00:34:37;;;;;;;14.32;2.28;;;27.20;71.40;;;;;;6215049;23;20024;-71
2023/12/13 00:37:04;;;;;;;8.82;2.28;;;27.20;72.60;;;;;;6215185;23;20004;-71
2023/12/13 00:39:32;;;;;;;12.73;1.90;;;27.20;73.00;;;;;;6215031;23;20318;-71
2023/12/13 00:41:59;;;;;;;8.93;2.17;;;27.30;73.30;;;;;;6214689;23;20001;-71
2023/12/13 00:44:26;;;;;;;13.82;2.85;;;27.50;74.40;;;;;;6214908;23;20009;-71
2023/12/13 00:46:53;;;;;;;14.13;2.65;;;27.50;73.30;;;;;;6215828;23;20079;-71
2023/12/13 00:49:21;;;;;;;10.77;2.45;;;27.50;72.40;;;;;;6214725;23;20016;-71
2023/12/13 00:51:49;;;;;;;9.75;2.35;;;27.50;73.10;;;;;;6188108;23;20048;-71
2023/12/13 00:54:16;;;;;;;8.00;2.42;;;27.50;71.30;;;;;;6214633;23;20005;-71
2023/12/13 00:56:43;;;;;;;7.03;1.90;;;27.40;72.80;;;;;;6215089;23;20009;-72
2023/12/13 00:59:10;;;;;;;9.43;2.00;;;27.30;71.50;;;;;;6215023;23;19996;-71
2023/12/13 01:01:47;;;;;;;9.70;2.00;;;27.20;72.20;;;;;;6214572;23;20005;-71
2023/12/13 01:04:14;;;;;;;9.45;2.03;;;27.20;70.90;;;;;;6214837;23;20007;-71
2023/12/13 01:06:42;;;;;;;11.52;2.72;;;27.20;71.70;;;;;;6214551;23;20009;-71
2023/12/13 01:09:09;;;;;;;10.65;2.15;;;27.30;71.00;;;;;;6188936;23;20000;-71
2023/12/13 01:11:37;;;;;;;8.88;1.90;;;27.30;69.80;;;;;;6214630;23;20043;-72
2023/12/13 01:14:04;;;;;;;11.45;2.25;;;27.30;69.40;;;;;;6188085;23;20009;-71
2023/12/13 01:16:33;;;;;;;10.48;2.03;;;27.10;69.60;;;;;;6215004;23;20009;-71
2023/12/13 01:19:01;;;;;;;6.43;1.58;;;26.90;69.90;;;;;;6214835;23;20000;-71
2023/12/13 01:21:28;;;;;;;8.30;1.83;;;26.80;70.70;;;;;;6214891;23;20000;-71
2023/12/13 01:23:56;;;;;;;7.47;1.80;;;26.70;70.30;;;;;;6214554;23;20084;-71
2023/12/13 01:26:23;;;;;;;10.20;2.08;;;26.70;72.80;;;;;;6188393;23;20000;-71
2023/12/13 01:28:50;;;;;;;11.43;2.28;;;26.80;72.60;;;;;;6214662;23;20054;-71
2023/12/13 01:31:18;;;;;;;8.70;1.98;;;26.90;73.20;;;;;;6214102;23;20051;-71
2023/12/13 01:33:45;;;;;;;12.88;2.30;;;27.00;72.70;;;;;;6214194;23;19997;-70
2023/12/13 01:36:12;;;;;;;9.35;1.92;;;27.10;71.50;;;;;;6214605;23;20005;-71
2023/12/13 01:38:39;;;;;;;10.02;2.30;;;27.20;70.70;;;;;;6213887;23;20001;-75
2023/12/13 01:41:07;;;;;;;12.43;2.20;;;27.20;70.90;;;;;;6188239;23;20031;-75
2023/12/13 01:43:34;;;;;;;9.32;1.90;;;27.30;72.10;;;;;;6214583;23;20451;-75
2023/12/13 01:46:01;;;;;;;13.35;2.40;;;27.20;70.60;;;;;;6187734;23;20087;-76
2023/12/13 01:48:29;;;;;;;10.57;2.40;;;27.10;71.30;;;;;;6163388;23;20020;-76
2023/12/13 01:50:56;;;;;;;11.60;2.05;;;27.10;73.10;;;;;;6163813;23;20016;-70
2023/12/13 01:53:25;;;;;;;8.77;2.33;;;27.00;72.70;;;;;;6214285;23;20005;-71
2023/12/13 01:55:54;;;;;;;12.40;2.28;;;26.90;73.70;;;;;;6188058;23;20083;-71
2023/12/13 01:58:21;;;;;;;7.22;2.13;;;26.90;72.60;;;;;;6214287;23;20128;-71
2023/12/13 02:00:48;;;;;;;7.55;2.03;;;26.80;72.60;;;;;;6187683;23;20377;-71
2023/12/13 02:03:16;;;;;;;12.68;2.50;;;26.90;74.70;;;;;;6187936;23;20024;-70
2023/12/13 02:05:44;;;;;;;13.48;2.08;;;27.00;74.20;;;;;;6188284;23;20007;-70
2023/12/13 02:08:11;;;;;;;10.55;2.42;;;27.00;74.20;;;;;;6188501;23;20440;-71
2023/12/13 02:10:38;;;;;;;9.52;2.55;;;27.00;72.00;;;;;;6187954;23;20033;-70
2023/12/13 02:13:06;;;;;;;8.65;2.15;;;27.10;72.00;;;;;;6188205;23;20004;-71
2023/12/13 02:15:35;;;;;;;14.55;2.22;;;27.10;73.40;;;;;;6163736;23;20424;-71
2023/12/13 02:18:02;;;;;;;6.78;2.30;;;27.10;72.20;;;;;;6214456;23;20008;-71
2023/12/13 02:20:30;;;;;;;7.75;1.92;;;27.10;71.80;;;;;;6214465;23;20004;-71
2023/12/13 02:22:57;;;;;;;12.85;2.50;;;27.10;73.30;;;;;;6187064;23;20331;-71
2023/12/13 02:25:38;;;;;;;7.20;2.22;;;27.20;74.40;;;;;;6214535;23;20072;-71
2023/12/13 02:28:08;;;;;;;7.57;1.98;;;27.20;72.60;;;;;;6164943;23;20087;-71
2023/12/13 02:30:35;;;;;;;12.73;2.72;;;27.30;72.50;;;;;;6187635;23;20027;-71
2023/12/13 02:33:02;;;;;;;9.52;2.47;;;27.30;72.60;;;;;;6213755;23;20457;-71
2023/12/13 02:35:29;;;;;;;9.60;2.22;;;27.30;73.50;;;;;;6214310;23;20051;-71
2023/12/13 02:37:56;;;;;;;7.10;2.10;;;27.30;72.60;;;;;;6214256;23;20029;-71
2023/12/13 02:40:25;;;;;;;9.52;2.28;;;27.20;72.10;;;;;;6214286;23;20028;-71
2023/12/13 02:42:52;;;;;;;13.90;2.78;;;27.30;73.10;;;;;;6214122;23;20486;-71
2023/12/13 02:45:20;;;;;;;15.85;2.38;;;27.20;73.50;;;;;;6214060;23;20016;-70
2023/12/13 02:47:49;;;;;;;16.45;2.22;;;27.30;72.20;;;;;;6214034;23;20000;-70
2023/12/13 02:50:17;;;;;;;14.43;2.25;;;27.20;72.60;;;;;;6188534;23;20083;-70
2023/12/13 02:52:44;;;;;;;8.95;2.28;;;27.20;74.10;;;;;;6214312;23;20009;-71
2023/12/13 02:55:11;;;;;;;8.30;1.92;;;27.20;73.70;;;;;;6216279;23;20031;-71
2023/12/13 02:57:38;;;;;;;12.07;2.22;;;27.10;72.50;;;;;;6216272;23;20005;-71
2023/12/13 03:00:06;;;;;;;11.73;2.40;;;26.90;72.50;;;;;;6216245;23;20127;-70
2023/12/13 03:02:34;;;;;;;9.90;2.13;;;26.90;73.80;;;;;;6190067;23;20031;-70
2023/12/13 03:05:03;;;;;;;11.63;2.30;;;26.90;72.90;;;;;;6189787;23;20011;-70
2023/12/13 03:07:30;;;;;;;9.50;2.35;;;26.80;73.00;;;;;;6215956;23;20336;-71
2023/12/13 03:09:57;;;;;;;12.65;2.53;;;26.80;74.00;;;;;;6215587;23;20067;-70
2023/12/13 03:12:25;;;;;;;15.32;2.28;;;26.90;74.10;;;;;;6189782;23;20016;-70
2023/12/13 03:14:52;;;;;;;8.90;2.38;;;26.80;74.20;;;;;;6164445;23;20027;-70
2023/12/13 03:17:19;;;;;;;12.27;2.60;;;26.80;73.80;;;;;;6215852;23;20431;-70
2023/12/13 03:19:47;;;;;;;13.82;2.53;;;26.80;74.10;;;;;;6215925;23;19996;-70
2023/12/13 03:22:14;;;;;;;11.77;2.35;;;26.80;74.00;;;;;;6215979;23;20459;-70
2023/12/13 03:24:41;;;;;;;8.32;2.10;;;26.80;74.40;;;;;;6216266;23;20000;-70
2023/12/13 03:27:09;;;;;;;11.32;2.33;;;26.80;74.90;;;;;;6189503;23;20317;-70
2023/12/13 03:29:36;;;;;;;15.02;2.63;;;26.90;74.90;;;;;;6216098;23;20036;-68
2023/12/13 03:32:04;;;;;;;14.13;3.05;;;26.90;73.80;;;;;;6164497;23;20021;-68
2023/12/13 03:34:31;;;;;;;7.93;2.45;;;26.90;73.90;;;;;;6215424;23;20005;-71
2023/12/13 03:36:58;;;;;;;12.07;2.90;;;27.00;74.80;;;;;;6215597;23;20073;-70
2023/12/13 03:39:25;;;;;;;12.23;2.70;;;26.90;73.90;;;;;;6188562;23;20028;-70
2023/12/13 03:41:53;;;;;;;6.40;2.38;;;27.00;73.70;;;;;;6215682;23;20005;-70
2023/12/13 03:44:20;;;;;;;10.93;2.85;;;26.90;73.70;;;;;;6215523;23;20004;-71
2023/12/13 03:46:47;;;;;;;14.23;3.05;;;26.90;74.00;;;;;;6215590;23;20001;-71
2023/12/13 03:49:16;;;;;;;11.85;3.08;;;26.90;74.90;;;;;;6215955;23;20008;-70
2023/12/13 03:51:46;;;;;;;8.35;2.53;;;26.90;74.20;;;;;;6189613;23;20013;-70
2023/12/13 03:54:16;;;;;;;8.20;2.70;;;27.00;73.10;;;;;;6188612;23;20026;-67
2023/12/13 03:56:43;;;;;;;11.50;2.60;;;27.00;73.20;;;;;;6215403;23;20019;-68
2023/12/13 03:59:11;;;;;;;13.68;3.08;;;27.10;73.40;;;;;;6215465;23;20339;-68
2023/12/13 04:01:38;;;;;;;12.70;3.38;;;27.10;73.10;;;;;;6188908;23;20019;-70
2023/12/13 04:04:05;;;;;;;9.70;3.30;;;27.20;74.00;;;;;;6215196;23;20072;-68
2023/12/13 04:06:32;;;;;;;14.95;2.50;;;27.20;73.10;;;;;;6214890;23;20000;-68
2023/12/13 04:08:59;;;;;;;9.52;2.58;;;27.20;73.10;;;;;;6215195;23;20000;-68
2023/12/13 04:11:27;;;;;;;11.77;3.10;;;27.30;72.70;;;;;;6215196;23;20035;-68
2023/12/13 04:13:54;;;;;;;11.65;3.15;;;27.30;72.80;;;;;;6215319;23;20339;-71
2023/12/13 04:16:21;;;;;;;14.02;3.00;;;27.30;72.40;;;;;;6215116;23;20008;-71
2023/12/13 04:18:48;;;;;;;8.07;2.55;;;27.30;72.90;;;;;;6215367;23;20313;-68
2023/12/13 04:21:16;;;;;;;12.30;3.00;;;27.30;71.20;;;;;;6215312;23;20433;-68
2023/12/13 04:23:43;;;;;;;14.55;3.03;;;27.30;72.20;;;;;;6215190;23;20028;-68
2023/12/13 04:26:10;;;;;;;6.75;2.65;;;27.30;72.50;;;;;;6215395;23;20344;-68
2023/12/13 04:28:37;;;;;;;20.27;3.75;;;27.30;69.90;;;;;;6214943;23;20013;-69
2023/12/13 04:31:05;;;;;;;6.45;2.83;;;27.30;70.10;;;;;;6215285;23;20016;-68
2023/12/13 04:33:33;;;;;;;10.25;2.90;;;27.30;70.60;;;;;;6215031;23;20011;-68
2023/12/13 04:36:01;;;;;;;13.95;2.95;;;27.30;71.30;;;;;;6215232;23;20015;-68
2023/12/13 04:38:28;;;;;;;10.75;2.90;;;27.40;72.00;;;;;;6164307;23;20000;-68
2023/12/13 04:40:55;;;;;;;10.25;2.72;;;27.30;71.80;;;;;;6215058;23;20052;-68
2023/12/13 04:43:23;;;;;;;10.93;3.08;;;27.40;71.90;;;;;;6188477;23;20009;-69
2023/12/13 04:45:51;;;;;;;9.98;3.10;;;27.40;72.00;;;;;;6214946;23;20039;-68
2023/12/13 04:48:18;;;;;;;12.00;3.10;;;27.40;72.10;;;;;;6214901;23;19997;-68
2023/12/13 04:50:45;;;;;;;12.93;2.92;;;27.40;72.20;;;;;;6214747;23;20076;-68
2023/12/13 04:53:12;;;;;;;8.68;2.72;;;27.40;72.30;;;;;;6188702;23;20092;-68
2023/12/13 04:55:40;;;;;;;49.92;11.38;;;27.50;71.30;;;;;;6214041;23;20001;-69
2023/12/13 04:58:07;;;;;;;14.45;3.30;;;27.40;70.70;;;;;;6214735;23;20026;-68
2023/12/13 05:00:34;;;;;;;8.90;2.72;;;27.40;70.20;;;;;;6214871;23;20012;-65
2023/12/13 05:03:01;;;;;;;10.15;2.88;;;27.40;70.90;;;;;;6214565;23;20024;-66
2023/12/13 05:05:29;;;;;;;7.93;2.92;;;27.30;70.50;;;;;;6214639;23;20043;-66
2023/12/13 05:07:56;;;;;;;9.07;3.13;;;27.30;70.00;;;;;;6214687;23;20047;-66
2023/12/13 05:10:23;;;;;;;8.93;3.20;;;27.30;68.60;;;;;;6215032;23;20013;-66
2023/12/13 05:12:50;;;;;;;8.48;3.17;;;27.30;69.00;;;;;;6214944;23;20075;-66
2023/12/13 05:15:18;;;;;;;12.68;3.88;;;27.20;69.40;;;;;;6212197;23;20009;-67
2023/12/13 05:17:45;;;;;;;12.55;3.50;;;27.30;69.40;;;;;;6210804;23;20629;-68
2023/12/13 05:20:13;;;;;;;9.05;2.38;;;27.30;69.40;;;;;;6185099;23;20155;-68
2023/12/13 05:22:40;;;;;;;11.85;3.17;;;27.30;68.60;;;;;;6210903;23;20032;-67
2023/12/13 05:25:08;;;;;;;9.10;2.55;;;27.20;68.40;;;;;;6210838;23;20007;-69
2023/12/13 05:27:35;;;;;;;10.68;2.80;;;27.20;68.20;;;;;;6184191;23;20027;-71
2023/12/13 05:30:03;;;;;;;7.47;2.30;;;27.20;68.90;;;;;;6211304;23;20004;-69
2023/12/13 05:32:30;;;;;;;7.88;2.58;;;27.20;68.90;;;;;;6160095;23;20332;-67
2023/12/13 05:34:57;;;;;;;12.63;2.80;;;27.20;69.60;;;;;;6181971;23;20000;-68
2023/12/13 05:37:24;;;;;;;7.18;2.22;;;27.10;69.20;;;;;;6185104;23;20008;-69
2023/12/13 05:39:52;;;;;;;11.27;2.72;;;27.10;69.20;;;;;;6184487;23;20009;-68
2023/12/13 05:42:19;;;;;;;9.98;2.40;;;27.10;69.30;;;;;;6160338;23;20075;-71
2023/12/13 05:44:49;;;;;;;11.25;2.33;;;27.10;68.90;;;;;;6211339;23;20001;-68
2023/12/13 05:47:16;;;;;;;7.55;2.22;;;27.00;69.40;;;;;;6185182;23;20040;-68
2023/12/13 05:49:44;;;;;;;11.30;2.53;;;27.00;70.00;;;;;;6184526;23;20044;-68
2023/12/13 06:30:06;;;;;;;13.65;3.60;;;26.60;71.60;;;;;;6182055;23;20028;-68
2023/12/13 06:32:34;;;;;;;9.93;2.50;;;26.60;71.60;;;;;;6212580;23;20377;-68
2023/12/13 06:35:01;;;;;;;6.13;1.90;;;26.50;71.30;;;;;;6183858;23;20054;-70
2023/12/13 06:37:28;;;;;;;12.63;3.00;;;26.50;71.90;;;;;;6212143;23;20712;-70
2023/12/13 06:39:55;;;;;;;8.43;2.47;;;26.50;72.30;;;;;;6211995;23;20005;-70
2023/12/13 06:42:23;;;;;;;9.68;2.97;;;26.40;72.00;;;;;;6212208;23;20059;-70
2023/12/13 06:44:50;;;;;;;12.00;2.45;;;26.40;72.50;;;;;;6212618;23;20007;-71
2023/12/13 06:47:17;;;;;;;12.45;2.42;;;26.40;72.10;;;;;;6212315;23;20840;-71
2023/12/13 06:49:45;;;;;;;9.90;2.33;;;26.50;72.10;;;;;;6212573;23;20000;-71
2023/12/13 06:52:12;;;;;;;14.82;2.63;;;26.40;72.30;;;;;;6211223;23;20090;-70
2023/12/13 06:54:40;;;;;;;12.90;2.85;;;26.40;72.60;;;;;;6211910;23;20004;-71
2023/12/13 06:57:07;;;;;;;11.93;2.28;;;26.40;72.10;;;;;;6212057;23;20011;-71
2023/12/13 06:59:34;;;;;;;12.05;2.58;;;26.50;72.30;;;;;;6211991;23;20063;-72
2023/12/13 07:02:01;;;;;;;12.23;2.47;;;26.50;72.20;;;;;;6211645;23;20187;-70
2023/12/13 07:04:29;;;;;;;8.48;2.55;;;26.50;72.40;;;;;;6211386;23;20104;-72
2023/12/13 07:06:58;;;;;;;13.52;2.50;;;26.50;72.00;;;;;;6212281;23;20031;-72
2023/12/13 07:09:26;;;;;;;8.20;2.10;;;26.50;72.10;;;;;;6186171;23;20004;-71
2023/12/13 07:11:53;;;;;;;9.63;2.28;;;26.40;72.30;;;;;;6212551;23;20055;-72
2023/12/13 07:14:20;;;;;;;11.77;2.85;;;26.50;72.70;;;;;;6211854;23;20005;-72
2023/12/13 07:16:47;;;;;;;11.77;2.42;;;26.40;71.90;;;;;;6211819;23;20004;-70
2023/12/13 07:19:14;;;;;;;14.95;3.35;;;26.40;71.90;;;;;;6211563;23;20412;-70
2023/12/13 07:21:42;;;;;;;13.57;2.85;;;26.40;72.10;;;;;;6212030;23;20011;-71
2023/12/13 07:24:09;;;;;;;13.55;2.50;;;26.30;72.00;;;;;;6185684;23;20103;-70
2023/12/13 07:26:36;;;;;;;11.80;2.67;;;26.30;72.00;;;;;;6212169;23;20512;-71
2023/12/13 07:29:04;;;;;;;14.18;2.63;;;26.40;72.40;;;;;;6185830;23;20005;-70
2023/12/13 09:51:51;;;;;;;15.18;3.55;;;25.10;78.70;;;;;;6203451;23;20031;-71
2023/12/13 09:54:18;;;;;;;13.48;3.05;;;25.10;78.40;;;;;;6184507;23;20023;-69
2023/12/13 09:56:45;;;;;;;17.35;3.33;;;25.00;78.10;;;;;;6184611;23;20001;-70
2023/12/13 09:59:13;;;;;;;16.00;2.65;;;25.10;78.40;;;;;;6210200;23;20014;-69
2023/12/13 10:01:40;;;;;;;15.98;3.55;;;25.10;78.00;;;;;;6183636;23;20012;-70
2023/12/13 10:04:09;;;;;;;13.18;2.72;;;25.10;78.10;;;;;;6210019;23;20324;-70
2023/12/13 10:06:36;;;;;;;15.70;3.33;;;25.10;78.40;;;;;;6183287;23;20005;-69
2023/12/13 10:09:04;;;;;;;22.02;4.18;;;25.10;78.40;;;;;;6209343;23;20020;-69
2023/12/13 10:11:31;;;;;;;12.88;2.70;;;25.10;78.90;;;;;;6210158;23;20013;-70
2023/12/13 10:13:58;;;;;;;16.67;2.65;;;25.00;79.20;;;;;;6184528;23;20016;-70
2023/12/13 10:16:28;;;;;;;16.95;3.25;;;25.00;79.30;;;;;;6210990;23;20009;-71
2023/12/13 10:18:56;;;;;;;20.67;3.35;;;25.00;79.20;;;;;;6211190;23;20004;-70
2023/12/13 10:21:23;;;;;;;16.08;2.95;;;25.00;79.40;;;;;;6184753;23;20004;-71
2023/12/13 10:23:50;;;;;;;18.88;2.97;;;25.00;79.50;;;;;;6211585;23;20005;-70
2023/12/13 10:26:18;;;;;;;14.20;3.17;;;25.00;79.60;;;;;;6210739;23;20004;-71
2023/12/13 10:28:45;;;;;;;15.30;3.15;;;25.00;79.50;;;;;;6210516;23;20000;-71
2023/12/13 10:31:13;;;;;;;17.13;2.92;;;24.90;79.60;;;;;;6210599;23;20447;-70
2023/12/13 10:33:40;;;;;;;16.80;3.22;;;24.90;79.80;;;;;;6206869;23;20001;-70
2023/12/13 10:36:08;;;;;;;14.02;3.05;;;24.90;79.70;;;;;;6210127;23;20075;-71
2023/12/13 10:38:35;;;;;;;19.20;3.35;;;24.90;79.90;;;;;;6184328;23;20005;-69
2023/12/13 10:41:03;;;;;;;18.45;3.00;;;25.00;79.80;;;;;;6184764;23;20015;-70
2023/12/13 10:43:31;;;;;;;15.48;3.80;;;24.90;79.70;;;;;;6161107;23;20009;-69
2023/12/13 10:46:02;;;;;;;17.00;3.42;;;24.90;79.70;;;;;;6184616;23;20011;-68
2023/12/13 10:48:33;;;;;;;22.38;3.55;;;25.00;79.90;;;;;;6184750;23;20008;-70
2023/12/13 10:51:02;;;;;;;15.25;3.97;;;25.00;80.10;;;;;;6184167;23;20436;-68
2023/12/13 10:53:31;;;;;;;19.83;3.28;;;25.00;80.10;;;;;;6210517;23;20033;-71
2023/12/13 10:55:59;;;;;;;15.32;3.50;;;25.00;80.10;;;;;;6184913;23;20336;-70
2023/12/13 10:58:27;;;;;;;14.55;3.15;;;25.00;80.10;;;;;;6160118;23;20794;-70
2023/12/13 11:00:54;;;;;;;14.20;3.60;;;25.00;80.00;;;;;;6210559;23;20011;-70
2023/12/13 11:03:38;;;;;;;15.93;2.92;;;25.00;80.10;;;;;;6159491;23;20088;-70
2023/12/13 11:06:06;;;;;;;17.02;3.20;;;24.90;80.10;;;;;;6186880;23;20001;-70
2023/12/13 11:08:39;;;;;;;18.25;3.97;;;25.00;80.20;;;;;;6210697;23;20013;-71
2023/12/13 11:11:12;;;;;;;17.38;3.70;;;25.00;80.10;;;;;;6184523;23;20016;-71
2023/12/13 11:13:49;;;;;;;20.60;3.00;;;25.00;80.10;;;;;;6210704;23;20031;-71
2023/12/13 11:16:18;;;;;;;13.27;3.42;;;25.10;80.20;;;;;;6186303;23;20028;-70
2023/12/13 11:18:46;;;;;;;16.30;3.22;;;25.00;80.00;;;;;;6210741;23;20008;-71
2023/12/13 11:21:29;;;;;;;15.00;3.33;;;25.10;79.90;;;;;;6212254;23;20009;-70
2023/12/13 11:24:00;;;;;;;20.17;3.85;;;25.10;79.90;;;;;;6187948;23;20003;-71
2023/12/13 11:26:34;;;;;;;14.95;2.90;;;25.10;79.80;;;;;;6214477;23;20432;-70
2023/12/13 11:29:01;;;;;;;10.63;2.72;;;25.10;80.00;;;;;;6189515;23;20066;-70
2023/12/13 11:31:30;;;;;;;14.43;3.00;;;25.10;79.80;;;;;;6215473;23;20040;-70
2023/12/13 11:33:57;;;;;;;15.07;2.78;;;25.10;80.00;;;;;;6215621;23;20336;-70
2023/12/13 11:36:26;;;;;;;11.90;2.80;;;25.10;80.00;;;;;;6215431;23;20450;-71
2023/12/13 11:38:55;;;;;;;13.82;3.72;;;25.10;79.60;;;;;;6215462;23;20035;-70
2023/12/13 11:41:22;;;;;;;12.10;3.15;;;25.20;79.30;;;;;;6215183;23;20009;-70
2023/12/13 11:43:50;;;;;;;7.25;2.50;;;25.20;79.00;;;;;;6189139;23;20023;-70
2023/12/13 11:46:17;;;;;;;12.85;2.78;;;25.30;78.70;;;;;;6215595;23;20016;-70
2023/12/13 11:48:45;;;;;;;11.40;2.92;;;25.30;78.50;;;;;;6215318;23;20412;-70
2023/12/13 11:51:12;;;;;;;8.10;2.35;;;25.30;78.50;;;;;;6215000;23;20484;-70
2023/12/13 11:53:39;;;;;;;12.07;3.10;;;25.40;78.60;;;;;;6215269;23;20047;-70
2023/12/13 11:56:12;;;;;;;14.85;3.90;;;25.40;78.80;;;;;;6214980;23;20001;-70
2023/12/13 11:58:39;;;;;;;17.70;3.33;;;25.50;79.00;;;;;;6189160;23;20009;-71
2023/12/13 12:01:07;;;;;;;15.57;3.03;;;25.30;80.20;;;;;;6215266;23;20004;-71
2023/12/13 12:03:34;;;;;;;11.57;2.97;;;25.00;83.90;;;;;;6214838;23;20085;-72
2023/12/13 12:06:04;;;;;;;12.20;3.22;;;24.30;89.40;;;;;;6215290;23;20011;-72
2023/12/13 12:08:32;;;;;;;11.70;2.38;;;23.90;91.20;;;;;;6188307;23;20028;-72
2023/12/13 12:11:00;;;;;;;14.70;2.88;;;23.60;91.80;;;;;;6215030;23;20016;-73
2023/12/13 12:13:27;;;;;;;10.55;3.05;;;23.50;91.00;;;;;;6188916;23;20004;-73
2023/12/13 12:15:55;;;;;;;16.10;3.70;;;23.40;90.90;;;;;;6189109;23;20351;-73
2023/12/13 12:18:22;;;;;;;10.70;2.90;;;23.40;91.10;;;;;;6215246;23;20046;-73
2023/12/13 12:20:49;;;;;;;12.50;3.03;;;23.40;91.60;;;;;;6215132;23;20004;-74
2023/12/13 12:23:18;;;;;;;11.25;3.10;;;23.40;91.70;;;;;;6163537;23;20070;-73
2023/12/13 12:25:46;;;;;;;8.93;3.17;;;23.40;92.10;;;;;;6188741;23;20083;-73
2023/12/13 12:28:13;;;;;;;14.90;3.05;;;23.40;92.20;;;;;;6188692;23;20001;-73
2023/12/13 12:30:42;;;;;;;8.43;2.80;;;23.40;92.20;;;;;;6215806;23;20331;-73
2023/12/13 12:33:10;;;;;;;10.93;2.95;;;23.30;92.20;;;;;;6215364;23;20004;-73
2023/12/13 12:35:37;;;;;;;9.02;2.65;;;23.30;92.20;;;;;;6215339;23;20316;-73
2023/12/13 12:38:08;;;;;;;8.73;2.75;;;23.30;92.60;;;;;;6214219;23;20012;-73
2023/12/13 12:40:35;;;;;;;11.02;2.92;;;23.30;92.70;;;;;;6214738;23;20012;-73
2023/12/13 12:43:03;;;;;;;10.02;2.90;;;23.30;92.90;;;;;;6188213;23;20001;-72
2023/12/13 12:45:30;;;;;;;8.55;2.83;;;23.30;93.10;;;;;;6215058;23;20324;-72
2023/12/13 12:57:46;;;;;;;6.88;2.47;;;23.30;93.40;;;;;;6181755;23;20032;-72
2023/12/13 13:00:17;;;;;;;8.00;2.42;;;23.20;93.40;;;;;;6215218;23;20435;-72
2023/12/13 13:02:48;;;;;;;6.97;2.55;;;23.20;93.40;;;;;;6214892;23;20012;-72
2023/12/13 13:05:15;;;;;;;5.65;2.28;;;23.10;93.50;;;;;;6189376;23;20000;-72
2023/12/13 13:07:43;;;;;;;4.72;2.15;;;23.10;93.30;;;;;;6214694;23;20032;-72
2023/12/13 13:10:13;;;;;;;4.80;2.20;;;23.00;93.50;;;;;;6215077;23;20004;-72
2023/12/13 13:12:41;;;;;;;5.95;2.25;;;23.00;93.50;;;;;;6215350;23;20004;-72
2023/12/13 13:15:12;;;;;;;5.55;2.20;;;23.00;93.70;;;;;;6188415;23;20000;-72
2023/12/13 13:17:39;;;;;;;5.93;2.28;;;23.10;93.60;;;;;;6214502;23;20011;-72
2023/12/13 13:20:12;;;;;;;5.82;2.05;;;23.00;93.20;;;;;;6215061;23;20015;-72
2023/12/13 13:22:40;;;;;;;7.30;2.17;;;23.10;93.70;;;;;;6214345;23;20005;-72
2023/12/13 13:25:09;;;;;;;6.85;2.38;;;23.10;93.50;;;;;;6214752;23;20000;-72
2023/12/13 13:27:37;;;;;;;5.27;2.33;;;23.20;93.40;;;;;;6213502;23;20016;-71
2023/12/13 13:30:06;;;;;;;7.32;2.33;;;23.30;93.50;;;;;;6214055;23;20226;-72
2023/12/13 13:32:34;;;;;;;6.27;2.10;;;23.30;93.30;;;;;;6214108;23;20017;-72
2023/12/13 13:35:01;;;;;;;5.75;2.10;;;23.30;93.50;;;;;;6214816;23;20227;-72
2023/12/13 13:37:28;;;;;;;4.88;2.30;;;23.30;93.10;;;;;;6214715;23;20432;-72
2023/12/13 13:39:56;;;;;;;7.40;2.22;;;23.40;93.40;;;;;;6216638;23;20004;-72
2023/12/13 13:42:23;;;;;;;4.85;2.17;;;23.30;93.20;;;;;;6188330;23;20446;-72
2023/12/13 13:44:51;;;;;;;6.40;2.72;;;23.30;92.90;;;;;;6188076;23;20001;-72
2023/12/13 13:47:18;;;;;;;6.80;2.53;;;23.40;92.70;;;;;;6187501;23;20325;-72
2023/12/13 13:49:45;;;;;;;6.90;2.38;;;23.30;92.40;;;;;;6214542;23;20001;-72
2023/12/13 13:52:13;;;;;;;8.75;2.15;;;23.50;92.40;;;;;;6213431;23;20023;-72
2023/12/13 13:54:40;;;;;;;7.10;2.15;;;23.40;91.90;;;;;;6187182;23;19997;-72
2023/12/13 13:57:08;;;;;;;7.32;2.47;;;23.50;91.80;;;;;;6213399;23;20008;-73
2023/12/13 13:59:35;;;;;;;8.40;2.22;;;23.50;91.90;;;;;;6213556;23;20444;-72
2023/12/13 14:02:02;;;;;;;7.05;2.60;;;23.50;91.80;;;;;;6187347;23;20450;-72
2023/12/13 14:04:30;;;;;;;8.75;2.33;;;23.40;91.90;;;;;;6188151;23;20035;-72
2023/12/13 14:06:57;;;;;;;9.38;2.70;;;23.40;91.50;;;;;;6214521;23;20004;-72
2023/12/13 14:09:24;;;;;;;10.48;2.97;;;23.40;91.50;;;;;;6214439;23;20008;-71
2023/12/13 14:11:51;;;;;;;9.32;2.75;;;23.40;91.60;;;;;;6213223;23;20023;-72
2023/12/13 14:14:18;;;;;;;15.55;3.35;;;23.40;91.50;;;;;;6187378;23;20309;-72
2023/12/13 14:16:46;;;;;;;13.65;3.20;;;23.40;91.80;;;;;;6214360;23;20515;-72
2023/12/13 14:19:13;;;;;;;12.50;3.00;;;23.30;91.50;;;;;;6213485;23;20011;-72
2023/12/13 14:21:41;;;;;;;11.43;2.75;;;23.30;91.60;;;;;;6187810;23;20009;-72
2023/12/13 14:24:09;;;;;;;11.32;3.08;;;23.30;91.60;;;;;;6187877;23;20051;-72
2023/12/13 14:26:36;;;;;;;14.50;3.33;;;23.30;91.70;;;;;;6187297;23;20062;-72
2023/12/13 14:29:03;;;;;;;15.00;3.38;;;23.30;91.60;;;;;;6187506;23;19996;-72
2023/12/13 14:31:31;;;;;;;14.43;3.22;;;23.30;91.50;;;;;;6213904;23;20008;-72
2023/12/13 14:33:58;;;;;;;15.27;3.15;;;23.30;91.90;;;;;;6214223;23;20008;-72
2023/12/13 14:36:25;;;;;;;15.00;3.10;;;23.30;91.60;;;;;;6213919;23;20000;-73
2023/12/13 14:38:53;;;;;;;16.30;3.60;;;23.30;91.60;;;;;;6213556;23;20376;-73
2023/12/13 14:41:22;;;;;;;14.43;3.78;;;23.30;91.20;;;;;;6214329;23;20075;-72
2023/12/13 14:43:49;;;;;;;12.90;2.72;;;23.20;91.50;;;;;;6214326;23;20036;-73
2023/12/13 14:46:16;;;;;;;12.20;2.80;;;23.30;91.50;;;;;;6187451;23;20328;-72
2023/12/13 14:48:44;;;;;;;12.80;3.42;;;23.30;91.30;;;;;;6213730;23;20027;-73
2023/12/13 14:51:12;;;;;;;13.98;3.53;;;23.30;91.50;;;;;;6215375;23;20016;-73
2023/12/13 14:53:39;;;;;;;11.80;3.08;;;23.30;91.20;;;;;;6189378;23;20008;-73
2023/12/13 14:56:07;;;;;;;13.80;3.15;;;23.30;91.20;;;;;;6189240;23;20451;-73
2023/12/13 14:58:35;;;;;;;15.10;3.10;;;23.30;91.40;;;;;;6214932;23;20043;-73
2023/12/13 15:01:04;;;;;;;10.80;2.83;;;23.20;91.00;;;;;;6215471;23;20054;-73
2023/12/13 15:03:33;;;;;;;9.27;2.80;;;23.30;91.30;;;;;;6215430;23;20005;-72
2023/12/13 15:06:01;;;;;;;11.95;2.97;;;23.30;91.30;;;;;;6215943;23;20028;-73
2023/12/13 15:08:28;;;;;;;12.32;2.92;;;23.30;91.30;;;;;;6215235;23;20004;-73
2023/12/13 15:10:56;;;;;;;15.45;3.47;;;23.20;91.50;;;;;;6215490;23;20317;-73
2023/12/13 15:13:26;;;;;;;12.80;2.30;;;23.20;91.50;;;;;;6215669;23;20023;-73
2023/12/13 15:15:54;;;;;;;12.50;3.03;;;23.30;91.50;;;;;;6164607;23;20005;-73
2023/12/13 15:18:21;;;;;;;12.10;3.13;;;23.30;91.60;;;;;;6189202;23;20060;-73
2023/12/13 15:20:49;;;;;;;12.52;3.20;;;23.20;91.50;;;;;;6188983;23;20031;-73
2023/12/13 15:23:19;;;;;;;11.43;2.67;;;23.20;91.50;;;;;;6164685;23;20001;-73
2023/12/13 15:25:47;;;;;;;13.50;2.80;;;23.20;91.50;;;;;;6215754;23;20008;-73
2023/12/13 15:28:15;;;;;;;11.20;2.55;;;23.20;91.70;;;;;;6215432;23;20027;-73
2023/12/13 15:30:43;;;;;;;11.82;2.92;;;23.30;91.80;;;;;;6215717;23;20035;-72
2023/12/13 15:33:10;;;;;;;12.65;2.60;;;23.20;91.90;;;;;;6215323;23;20071;-73
2023/12/13 15:35:38;;;;;;;11.25;3.08;;;23.20;91.80;;;;;;6215543;23;20050;-73
2023/12/13 15:38:05;;;;;;;11.18;2.67;;;23.20;91.70;;;;;;6188811;23;20335;-72
2023/12/13 15:40:33;;;;;;;11.07;2.72;;;23.20;91.80;;;;;;6214379;23;20124;-71
2023/12/13 15:43:00;;;;;;;12.50;2.75;;;23.10;91.60;;;;;;6215286;23;20009;-72
2023/12/13 15:45:28;;;;;;;10.30;2.72;;;23.10;91.70;;;;;;6214841;23;20012;-72
2023/12/13 15:47:55;;;;;;;15.68;3.00;;;23.20;91.80;;;;;;6214759;23;20004;-72
2023/12/13 15:50:22;;;;;;;9.48;2.88;;;23.10;91.60;;;;;;6214974;23;20000;-72